Logan, New Jersey
Current Conditions -  °F | °C
As of 6:54 PM on Friday 19 Dec 2014 (Local Time) from KPHL Reporting Station
Clear Clear  
Wind Chill: 28°   Ceiling: Unl
Heat Index: 36°   Visibility: 10mi
Dew Point: 21°   Wind: 12mph
Humidity: 55%   Direction: 360°N
Pressure: 30.18"   Gusts: NA
Location:  39.757°N, 75.3338°W
Report Text: KPHL 192354Z 36010KT 10SM CLR 02/M06 A3018 RMK AO2 SLP217 T00221061 10056 20022 51026
Loading
Personal Weather Stations






























Interactive Weather Map New forecast layout! Learn more

10-Day Weather Forecast

Advertisements
Track Severe Weather on mobile